This is the latest recevied weather packets stored in our database for station/object EA6AMI-5. If no packets are shown the sender has not sent any weather packets the latest 10 day(s).
| Time | Temp. | Humidity | Pressure | Rain* | Wind** | Luminosity | Snow |
|---|---|---|---|---|---|---|---|
| 1788161763 | 27.22° C | 57% | 1019.2 hPa | 0 mm | - | 256 W/m² | - |
| 1788161223 | 27.22° C | 54% | 1019.1 hPa | 0 mm | - | 226 W/m² | - |
| 1788160683 | 26.11° C | 55% | 1019.1 hPa | 0 mm | - | 185 W/m² | - |
| 1788160143 | 25.56° C | 52% | 1019 hPa | 0 mm | - | 141 W/m² | - |
| 1788159603 | 25° C | 53% | 1019.1 hPa | 0 mm | - | 115 W/m² | - |
| 1788159243 | 25° C | 53% | 1018.7 hPa | 0 mm | - | 105 W/m² | - |
| 1788158703 | 24.44° C | 54% | 1018.7 hPa | 0 mm | - | 93 W/m² | - |
| 1788158163 | 22.78° C | 60% | 1018.9 hPa | 0 mm | - | 82 W/m² | - |
| 1788157623 | 21.67° C | 63% | 1019.1 hPa | 0 mm | - | 71 W/m² | - |
| 1788157083 | 21.11° C | 64% | 1019 hPa | 0 mm | - | 61 W/m² | - |
| 1788156543 | 21.67° C | 66% | 1018.8 hPa | 0 mm | - | 51 W/m² | - |
| 1788156003 | 21.11° C | 71% | 1018.6 hPa | 0 mm | - | 41 W/m² | - |
| 1788155643 | 20.56° C | 73% | 1018.8 hPa | 0 mm | - | 33 W/m² | - |
| 1788155103 | 20° C | 74% | 1018.5 hPa | 0 mm | - | 23 W/m² | - |
| 1788154564 | 20° C | 73% | 1018.6 hPa | 0 mm | - | 15 W/m² | - |
| 1788154023 | 20.56° C | 72% | 1018.4 hPa | 0 mm | - | 7 W/m² | - |
| 1788153483 | 20° C | 72% | 1018.2 hPa | 0 mm | - | 3 W/m² | - |
| 1788152943 | 20° C | 75% | 1018.3 hPa | 0 mm | - | 1 W/m² | - |
| 1788152403 | 20.56° C | 75% | 1018.2 hPa | 0 mm | - | 0 W/m² | - |
| 1788152043 | 20.56° C | 76% | 1018 hPa | 0 mm | - | 0 W/m² | - |
| 1788151503 | 20.56° C | 78% | 1018 hPa | 0 mm | - | 0 W/m² | - |
| 1788150963 | 20° C | 80% | 1017.9 hPa | 0 mm | - | 0 W/m² | - |
| 1788150423 | 20.56° C | 79% | 1017.9 hPa | 0 mm | - | 0 W/m² | - |
| 1788149883 | 20.56° C | 78% | 1017.9 hPa | 0 mm | - | 0 W/m² | - |
| 1788149343 | 20.56° C | 79% | 1017.8 hPa | 0 mm | - | 0 W/m² | - |
* Rain latest hour (hover to see other rain measurements)
** Current wind speed in m/s (hover to see current wind gust speed)